createdAt,value
2019-05-17T00:01:26.900Z,81.40
2019-05-17T00:03:53.681Z,81.20
2019-05-17T00:06:21.184Z,81.20
2019-05-17T00:08:48.871Z,81.10
2019-05-17T00:11:16.915Z,81.80
2019-05-17T00:13:46.497Z,81.20
2019-05-17T00:16:14.128Z,81.20
2019-05-17T00:18:41.528Z,81.20
2019-05-17T00:21:09.304Z,81.30
2019-05-17T00:23:37.484Z,81.50
2019-05-17T00:26:07.213Z,81.20
2019-05-17T00:28:34.307Z,81.50
2019-05-17T00:31:02.100Z,81.80
2019-05-17T00:33:29.456Z,81.50
2019-05-17T00:35:57.948Z,81.70
2019-05-17T00:38:27.375Z,81.90
2019-05-17T00:40:56.459Z,81.70
2019-05-17T00:43:26.267Z,81.80
2019-05-17T00:45:53.500Z,81.70
2019-05-17T00:48:21.364Z,81.70
2019-05-17T00:50:53.625Z,81.70
2019-05-17T00:53:19.120Z,81.80
2019-05-17T00:55:47.917Z,81.30
2019-05-17T00:58:17.293Z,81.80
2019-05-17T01:00:47.844Z,81.40
2019-05-17T01:03:16.278Z,81.40
2019-05-17T01:05:44.220Z,81.40
2019-05-17T01:08:11.936Z,81.30
2019-05-17T01:10:39.796Z,81.50
2019-05-17T01:13:07.091Z,81.40
2019-05-17T01:15:36.918Z,81.60
2019-05-17T01:18:06.903Z,82.00
2019-05-17T01:20:34.232Z,81.80
2019-05-17T01:23:01.588Z,81.50
2019-05-17T01:25:29.460Z,81.20
2019-05-17T01:27:57.160Z,81.40
2019-05-17T01:30:26.641Z,81.40
2019-05-17T01:32:54.029Z,81.40
2019-05-17T01:35:21.160Z,81.90
2019-05-17T01:37:48.295Z,82.00
2019-05-17T01:40:17.677Z,82.00
2019-05-17T01:42:46.568Z,82.10
2019-05-17T01:45:16.442Z,82.00
2019-05-17T01:47:43.231Z,81.80
2019-05-17T01:50:10.528Z,82.00
2019-05-17T01:52:37.397Z,81.90
2019-05-17T01:55:06.585Z,81.80
2019-05-17T01:57:36.755Z,81.70
2019-05-17T02:00:06.390Z,81.80
2019-05-17T02:02:37.232Z,81.80
2019-05-17T02:05:06.435Z,82.00
2019-05-17T02:07:33.805Z,82.20
2019-05-17T02:10:00.984Z,82.20
2019-05-17T02:12:28.075Z,81.90
2019-05-17T02:14:57.397Z,82.00
2019-05-17T02:17:26.457Z,81.90
2019-05-17T02:19:53.739Z,81.90
2019-05-17T02:22:21.188Z,81.90
2019-05-17T02:24:48.288Z,82.10
2019-05-17T02:27:15.303Z,82.20
2019-05-17T02:29:42.490Z,82.40
2019-05-17T02:32:12.792Z,82.10
2019-05-17T02:34:42.807Z,82.50
2019-05-17T02:37:09.018Z,82.40
2019-05-17T02:39:52.241Z,82.70
2019-05-17T02:42:05.321Z,82.70
2019-05-17T02:44:33.481Z,83.00
2019-05-17T02:47:03.181Z,82.90
2019-05-17T02:49:32.846Z,83.20
2019-05-17T02:51:58.849Z,83.10
2019-05-17T02:54:25.844Z,82.70
2019-05-17T02:56:53.844Z,82.70
2019-05-17T02:59:23.215Z,83.00
2019-05-17T03:01:52.738Z,82.70
2019-05-17T03:04:19.552Z,83.00
2019-05-17T03:06:46.996Z,83.10
2019-05-17T03:09:14.246Z,83.30
2019-05-17T03:11:42.903Z,83.30
2019-05-17T03:14:12.832Z,83.10
2019-05-17T03:16:39.394Z,83.00
2019-05-17T03:19:06.471Z,83.10
2019-05-17T03:21:33.930Z,83.00
2019-05-17T03:24:03.175Z,83.20
2019-05-17T03:26:32.799Z,82.80
2019-05-17T03:29:02.891Z,82.80
2019-05-17T03:31:34.294Z,82.50
2019-05-17T03:33:58.685Z,82.80
2019-05-17T03:36:26.612Z,83.00
2019-05-17T03:38:54.569Z,83.00
2019-05-17T03:41:27.846Z,83.10
2019-05-17T03:43:53.320Z,83.00
2019-05-17T03:46:23.159Z,83.10
2019-05-17T03:48:52.881Z,83.10
2019-05-17T03:51:19.031Z,83.00
2019-05-17T03:53:46.161Z,83.20
2019-05-17T03:56:13.512Z,83.10
2019-05-17T03:58:43.414Z,83.00
2019-05-17T04:01:09.560Z,83.10
2019-05-17T04:03:36.715Z,83.20
2019-05-17T04:06:04.449Z,83.40
2019-05-17T04:08:33.438Z,83.40
2019-05-17T04:11:19.775Z,83.40
2019-05-17T04:13:33.576Z,83.70
2019-05-17T04:16:03.122Z,84.10
2019-05-17T04:18:28.708Z,83.40
2019-05-17T04:20:56.601Z,83.30
2019-05-17T04:23:23.684Z,83.20
2019-05-17T04:25:53.155Z,83.30
2019-05-17T04:28:22.643Z,83.50
2019-05-17T04:30:48.649Z,83.30
2019-05-17T04:33:15.650Z,83.40
2019-05-17T04:35:43.321Z,83.40
2019-05-17T04:38:12.742Z,83.20
2019-05-17T04:40:42.915Z,83.50
2019-05-17T04:43:09.092Z,83.20
2019-05-17T04:45:36.177Z,83.70
2019-05-17T04:48:04.287Z,84.30
2019-05-17T04:50:33.500Z,83.90
2019-05-17T04:53:02.732Z,83.80
2019-05-17T04:55:33.812Z,84.00
2019-05-17T04:58:03.470Z,83.90
2019-05-17T05:00:29.050Z,83.60
2019-05-17T05:02:56.393Z,83.90
2019-05-17T05:05:23.400Z,83.80
2019-05-17T05:07:53.234Z,84.00
2019-05-17T05:10:22.322Z,84.40
2019-05-17T05:12:48.604Z,84.30
2019-05-17T05:15:22.543Z,84.30
2019-05-17T05:17:52.633Z,83.80
2019-05-17T05:20:21.993Z,84.30
2019-05-17T05:22:48.135Z,84.40
2019-05-17T05:25:15.253Z,84.50
2019-05-17T05:27:43.051Z,84.60
2019-05-17T05:30:12.055Z,84.10
2019-05-17T05:32:39.496Z,84.60
2019-05-17T05:35:06.896Z,84.80
2019-05-17T05:37:33.860Z,84.60
2019-05-17T05:40:02.033Z,84.90
2019-05-17T05:42:31.395Z,85.00
2019-05-17T05:44:58.264Z,85.10
2019-05-17T05:47:25.772Z,85.30
2019-05-17T05:49:52.823Z,84.90
2019-05-17T05:52:21.823Z,84.90
2019-05-17T05:54:49.312Z,85.00
2019-05-17T05:57:16.353Z,85.10
2019-05-17T05:59:43.529Z,85.60
2019-05-17T06:02:12.351Z,85.50
2019-05-17T06:04:39.500Z,85.90
2019-05-17T06:07:07.069Z,86.30
2019-05-17T06:09:34.219Z,85.30
2019-05-17T06:12:02.406Z,85.70
2019-05-17T06:14:32.178Z,85.50
2019-05-17T06:16:59.049Z,86.00
2019-05-17T06:19:26.972Z,86.20
2019-05-17T06:21:55.124Z,86.10
2019-05-17T06:24:22.667Z,86.10
2019-05-17T06:26:52.365Z,86.40
2019-05-17T06:29:22.026Z,86.10
2019-05-17T06:31:48.816Z,86.40
2019-05-17T06:34:16.817Z,86.10
2019-05-17T06:36:43.953Z,86.40
2019-05-17T06:39:11.957Z,86.10
2019-05-17T06:41:41.702Z,86.40
2019-05-17T06:44:08.307Z,86.80
2019-05-17T06:46:35.184Z,86.90
2019-05-17T06:49:03.141Z,87.10
2019-05-17T06:51:31.595Z,87.20
2019-05-17T06:53:58.895Z,87.00
2019-05-17T06:56:27.191Z,87.00
2019-05-17T06:58:54.205Z,86.80
2019-05-17T07:01:21.791Z,87.00
2019-05-17T07:03:49.551Z,86.40
2019-05-17T07:06:21.363Z,87.00
2019-05-17T07:08:49.523Z,87.10
2019-05-17T07:11:16.662Z,86.80
2019-05-17T07:13:43.640Z,87.60
2019-05-17T07:16:11.280Z,87.40
2019-05-17T07:18:39.994Z,87.50
2019-05-17T07:21:09.806Z,88.10
2019-05-17T07:23:36.103Z,87.70
2019-05-17T07:26:03.629Z,87.10
2019-05-17T07:28:30.913Z,87.40
2019-05-17T07:30:59.648Z,87.90
2019-05-17T07:33:27.215Z,87.70
2019-05-17T07:35:54.376Z,87.80
2019-05-17T07:38:22.167Z,87.50
2019-05-17T07:40:50.222Z,87.90
2019-05-17T07:43:17.835Z,88.70
2019-05-17T07:45:44.847Z,87.90
2019-05-17T07:48:11.944Z,88.40
2019-05-17T07:50:39.899Z,88.30
2019-05-17T07:53:09.963Z,88.00
2019-05-17T07:55:36.276Z,88.30
2019-05-17T07:58:03.633Z,88.30
2019-05-17T08:00:31.095Z,88.20
2019-05-17T08:02:59.943Z,88.10
2019-05-17T08:05:29.480Z,88.50
2019-05-17T08:07:56.063Z,88.40
2019-05-17T08:10:23.104Z,88.50
2019-05-17T08:12:50.084Z,88.50
2019-05-17T08:15:17.124Z,88.40
2019-05-17T08:17:44.125Z,88.70
2019-05-17T08:20:11.215Z,88.00
2019-05-17T08:22:39.864Z,88.70
2019-05-17T08:25:10.175Z,88.70
2019-05-17T08:27:37.024Z,88.30
2019-05-17T08:30:04.463Z,88.70
2019-05-17T08:32:31.980Z,88.60
2019-05-17T08:35:00.314Z,88.40
2019-05-17T08:37:30.138Z,88.40
2019-05-17T08:39:56.863Z,88.80
2019-05-17T08:42:23.840Z,88.90
2019-05-17T08:44:50.826Z,89.40
2019-05-17T08:47:20.709Z,89.80
2019-05-17T08:49:49.510Z,89.50
2019-05-17T08:52:16.777Z,89.10
2019-05-17T08:54:44.532Z,89.20
2019-05-17T08:57:11.430Z,88.80
2019-05-17T08:59:40.513Z,89.50
2019-05-17T09:02:07.707Z,89.00
2019-05-17T09:04:34.731Z,89.50
2019-05-17T09:07:03.185Z,89.10
2019-05-17T09:09:31.427Z,89.50
2019-05-17T09:11:59.601Z,89.40
2019-05-17T09:14:26.811Z,88.50
2019-05-17T09:16:54.196Z,89.10
2019-05-17T09:19:21.408Z,89.60
2019-05-17T09:21:50.385Z,89.40
2019-05-17T09:24:19.500Z,90.00
2019-05-17T09:26:49.166Z,89.30
2019-05-17T09:29:16.609Z,89.60
2019-05-17T09:31:44.032Z,89.50
2019-05-17T09:34:11.467Z,89.40
2019-05-17T09:36:40.898Z,89.20
2019-05-17T09:39:09.485Z,89.30
2019-05-17T09:41:36.751Z,89.90
2019-05-17T09:44:12.974Z,89.80
2019-05-17T09:46:33.575Z,90.00
2019-05-17T09:49:01.335Z,88.80
2019-05-17T09:51:30.299Z,88.60
2019-05-17T09:53:59.894Z,88.40
2019-05-17T09:56:26.336Z,87.90
2019-05-17T09:58:53.475Z,88.10
2019-05-17T10:01:20.658Z,88.70
2019-05-17T10:03:47.684Z,88.30
2019-05-17T10:06:14.720Z,88.10
2019-05-17T10:08:42.008Z,88.20
2019-05-17T10:11:12.032Z,88.40
2019-05-17T10:13:38.344Z,88.40
2019-05-17T10:16:05.352Z,88.60
2019-05-17T10:18:32.768Z,87.80
2019-05-17T10:20:59.977Z,88.50
2019-05-17T10:23:27.056Z,88.50
2019-05-17T10:25:54.259Z,88.60
2019-05-17T10:28:22.935Z,88.30
2019-05-17T10:30:52.298Z,88.80
2019-05-17T10:33:20.061Z,88.70
2019-05-17T10:35:49.693Z,88.30
2019-05-17T10:38:16.857Z,88.40
2019-05-17T10:40:43.956Z,88.60
2019-05-17T10:43:10.931Z,88.50
2019-05-17T10:45:40.121Z,88.20
2019-05-17T10:48:07.171Z,88.40
2019-05-17T10:50:34.184Z,87.00
2019-05-17T10:53:01.356Z,88.20
2019-05-17T10:55:30.242Z,87.60
2019-05-17T10:57:57.399Z,87.40
2019-05-17T11:00:24.802Z,87.30
2019-05-17T11:02:52.636Z,88.00
2019-05-17T11:05:20.839Z,87.50
2019-05-17T11:07:50.504Z,87.50
2019-05-17T11:10:19.293Z,87.40
2019-05-17T11:12:46.380Z,87.30
2019-05-17T11:15:13.896Z,87.40
2019-05-17T11:17:41.137Z,87.40
2019-05-17T11:20:09.672Z,87.40
2019-05-17T11:22:37.095Z,88.00
2019-05-17T11:25:04.380Z,88.40
2019-05-17T11:27:31.321Z,88.30
2019-05-17T11:29:58.796Z,88.00
2019-05-17T11:32:25.750Z,87.60
2019-05-17T11:34:52.882Z,87.40
2019-05-17T11:37:19.929Z,87.40
2019-05-17T11:39:47.284Z,87.40
2019-05-17T11:42:14.488Z,87.40
2019-05-17T11:44:41.791Z,87.40
2019-05-17T11:47:08.691Z,86.70
2019-05-17T11:49:35.675Z,86.40
2019-05-17T11:52:02.833Z,85.70
2019-05-17T11:54:29.940Z,86.00
2019-05-17T11:56:56.972Z,85.60
2019-05-17T11:59:23.980Z,85.50
2019-05-17T12:01:51.216Z,84.90
2019-05-17T12:04:18.221Z,84.20
2019-05-17T12:06:45.228Z,84.20
2019-05-17T12:09:13.160Z,84.60
2019-05-17T12:11:40.013Z,84.00
2019-05-17T12:14:07.043Z,83.70
2019-05-17T12:16:34.759Z,83.90
2019-05-17T12:19:01.794Z,83.70
2019-05-17T12:21:28.921Z,83.70
2019-05-17T12:23:56.028Z,83.60
2019-05-17T12:26:23.185Z,83.70
2019-05-17T12:28:50.280Z,83.50
2019-05-17T12:31:17.544Z,83.60
2019-05-17T12:33:44.548Z,83.20
2019-05-17T12:36:11.568Z,82.80
2019-05-17T12:38:38.582Z,83.00
2019-05-17T12:41:05.904Z,82.10
2019-05-17T12:43:33.394Z,81.70
2019-05-17T12:46:01.661Z,81.30
2019-05-17T12:48:29.325Z,81.20
2019-05-17T12:50:56.361Z,81.30
2019-05-17T12:53:23.340Z,81.10
2019-05-17T12:55:50.219Z,81.00
2019-05-17T12:58:17.713Z,80.50
2019-05-17T13:00:44.788Z,81.10
2019-05-17T13:03:12.160Z,81.20
2019-05-17T13:05:39.013Z,80.90
2019-05-17T13:08:06.372Z,80.70
2019-05-17T13:10:33.772Z,80.80
2019-05-17T13:13:01.033Z,80.70
2019-05-17T13:15:28.016Z,80.20
2019-05-17T13:17:55.117Z,80.40
2019-05-17T13:20:22.194Z,80.40
2019-05-17T13:22:49.211Z,80.70
2019-05-17T13:25:16.377Z,80.90
2019-05-17T13:27:43.377Z,81.10
2019-05-17T13:30:10.830Z,81.10
2019-05-17T13:32:38.265Z,81.30
2019-05-17T13:35:06.176Z,80.80
2019-05-17T13:37:33.229Z,80.80
2019-05-17T13:40:00.185Z,80.90
2019-05-17T13:42:27.237Z,80.60
2019-05-17T13:44:54.216Z,80.40
2019-05-17T13:47:21.236Z,80.40
2019-05-17T13:49:48.277Z,80.40
2019-05-17T13:52:15.415Z,80.30
2019-05-17T13:54:42.658Z,80.50
2019-05-17T13:57:11.386Z,80.50
2019-05-17T13:59:38.793Z,80.80
2019-05-17T14:02:05.946Z,81.20
2019-05-17T14:04:33.653Z,80.40
2019-05-17T14:07:00.868Z,80.50
2019-05-17T14:09:28.303Z,80.50
2019-05-17T14:11:55.278Z,80.50
2019-05-17T14:14:22.477Z,80.10
2019-05-17T14:16:49.595Z,80.20
2019-05-17T14:19:16.683Z,80.00
2019-05-17T14:21:44.274Z,80.20
2019-05-17T14:24:11.797Z,80.20
2019-05-17T14:26:39.128Z,80.10
2019-05-17T14:29:06.307Z,80.30
2019-05-17T14:31:33.311Z,80.10
2019-05-17T14:34:01.329Z,79.80
2019-05-17T14:36:28.418Z,80.30
2019-05-17T14:38:55.266Z,80.40
2019-05-17T14:41:23.075Z,80.70
2019-05-17T14:43:50.221Z,80.60
2019-05-17T14:46:17.526Z,80.30
2019-05-17T14:48:45.001Z,80.10
2019-05-17T14:51:12.028Z,80.20
2019-05-17T14:53:39.565Z,80.60
2019-05-17T14:56:06.680Z,79.80
2019-05-17T14:58:33.932Z,80.10
2019-05-17T15:01:01.031Z,80.20
2019-05-17T15:03:28.285Z,80.10
2019-05-17T15:05:55.419Z,80.10
2019-05-17T15:08:22.556Z,80.00
2019-05-17T15:10:49.630Z,79.90
2019-05-17T15:13:16.624Z,80.20
2019-05-17T15:15:43.985Z,80.30
2019-05-17T15:18:11.335Z,80.20
2019-05-17T15:20:38.476Z,80.20
2019-05-17T15:23:06.161Z,80.30
2019-05-17T15:25:33.155Z,80.20
2019-05-17T15:28:00.495Z,80.20
2019-05-17T15:30:27.616Z,80.00
2019-05-17T15:32:54.500Z,79.90
2019-05-17T15:35:21.685Z,80.10
2019-05-17T15:37:48.870Z,79.90
2019-05-17T15:40:15.954Z,79.60
2019-05-17T15:42:44.727Z,79.40
2019-05-17T15:45:12.294Z,79.40
2019-05-17T15:47:40.165Z,79.00
2019-05-17T15:50:07.908Z,79.20
2019-05-17T15:52:34.928Z,79.10
2019-05-17T15:55:02.048Z,79.10
2019-05-17T15:57:29.514Z,78.80
2019-05-17T15:59:56.508Z,78.70
2019-05-17T16:02:26.070Z,78.80
2019-05-17T16:04:53.008Z,78.80
2019-05-17T16:07:20.141Z,78.70
2019-05-17T16:09:47.218Z,78.90
2019-05-17T16:12:14.499Z,78.70
2019-05-17T16:14:42.815Z,78.60
2019-05-17T16:17:10.104Z,78.50
2019-05-17T16:19:40.218Z,78.30
2019-05-17T16:22:09.447Z,78.40
2019-05-17T16:24:36.923Z,78.10
2019-05-17T16:27:06.926Z,78.00
2019-05-17T16:29:36.674Z,78.00
2019-05-17T16:32:06.299Z,78.10
2019-05-17T16:34:36.729Z,77.90
2019-05-17T16:37:05.869Z,78.20
2019-05-17T16:39:36.035Z,78.40
2019-05-17T16:42:04.834Z,78.20
2019-05-17T16:44:32.605Z,78.10
2019-05-17T16:47:00.090Z,78.10
2019-05-17T16:49:28.986Z,78.00
2019-05-17T16:51:58.362Z,78.00
2019-05-17T16:54:25.477Z,77.80
2019-05-17T16:56:52.830Z,77.90
2019-05-17T16:59:19.831Z,77.80
2019-05-17T17:01:50.156Z,77.90
2019-05-17T17:04:19.396Z,77.90
2019-05-17T17:06:47.065Z,78.00
2019-05-17T17:09:14.292Z,78.00
2019-05-17T17:11:45.805Z,78.10
2019-05-17T17:14:13.495Z,78.70
2019-05-17T17:16:42.981Z,78.20
2019-05-17T17:19:10.128Z,78.10
2019-05-17T17:21:39.370Z,78.10
2019-05-17T17:24:06.492Z,77.90
2019-05-17T17:26:33.550Z,77.90
2019-05-17T17:29:00.632Z,78.00
2019-05-17T17:31:27.698Z,77.60
2019-05-17T17:33:55.787Z,77.60
2019-05-17T17:36:25.874Z,77.50
2019-05-17T17:38:54.366Z,77.50
2019-05-17T17:41:26.511Z,77.70
2019-05-17T17:43:58.532Z,78.00
2019-05-17T17:46:22.403Z,78.10
2019-05-17T17:48:49.517Z,78.00
2019-05-17T17:51:16.820Z,78.20
2019-05-17T17:53:44.682Z,78.30
2019-05-17T17:56:13.703Z,78.40
2019-05-17T17:58:40.820Z,78.50
2019-05-17T18:01:08.065Z,79.00
2019-05-17T18:03:37.188Z,78.90
2019-05-17T18:06:05.517Z,78.80
2019-05-17T18:08:34.762Z,78.90
2019-05-17T18:11:01.797Z,79.80
2019-05-17T18:13:29.199Z,79.30
2019-05-17T18:15:56.533Z,79.30
2019-05-17T18:18:23.656Z,79.40
2019-05-17T18:20:50.768Z,79.70
2019-05-17T18:23:22.502Z,79.30
2019-05-17T18:25:47.349Z,79.70
2019-05-17T18:28:14.487Z,79.80
2019-05-17T18:30:42.007Z,79.90
2019-05-17T18:33:09.092Z,80.00
2019-05-17T18:35:36.492Z,80.10
2019-05-17T18:38:04.208Z,80.10
2019-05-17T18:40:31.323Z,80.00
2019-05-17T18:42:58.661Z,80.00
2019-05-17T18:45:25.649Z,80.00
2019-05-17T18:47:52.818Z,80.60
2019-05-17T18:50:20.188Z,80.50
2019-05-17T18:52:47.302Z,80.50
2019-05-17T18:55:16.950Z,80.70
2019-05-17T18:57:45.324Z,80.80
2019-05-17T19:00:12.923Z,80.90
2019-05-17T19:02:40.112Z,80.80
2019-05-17T19:05:07.550Z,81.10
2019-05-17T19:07:34.672Z,81.10
2019-05-17T19:10:01.799Z,81.00
2019-05-17T19:12:29.405Z,80.70
2019-05-17T19:14:56.631Z,80.40
2019-05-17T19:17:24.676Z,80.60
2019-05-17T19:19:51.753Z,80.80
2019-05-17T19:22:18.652Z,80.80
2019-05-17T19:24:45.534Z,80.80
2019-05-17T19:27:12.513Z,80.60
2019-05-17T19:29:43.098Z,80.70
2019-05-17T19:32:09.412Z,80.60
2019-05-17T19:34:36.265Z,80.40
2019-05-17T19:37:04.096Z,80.20
2019-05-17T19:39:31.103Z,80.20
2019-05-17T19:41:58.524Z,80.40
2019-05-17T19:44:26.552Z,80.00
2019-05-17T19:46:54.619Z,80.00
2019-05-17T19:49:21.726Z,80.10
2019-05-17T19:51:48.840Z,80.00
2019-05-17T19:54:15.939Z,80.40
2019-05-17T19:56:43.012Z,80.20
2019-05-17T19:59:10.021Z,80.00
2019-05-17T20:01:37.328Z,79.60
2019-05-17T20:04:04.753Z,80.20
2019-05-17T20:06:32.256Z,80.00
2019-05-17T20:08:59.500Z,80.10
2019-05-17T20:11:33.995Z,80.30
2019-05-17T20:13:55.648Z,80.10
2019-05-17T20:16:22.552Z,79.80
2019-05-17T20:18:49.996Z,80.10
2019-05-17T20:21:17.248Z,80.50
2019-05-17T20:23:44.604Z,80.80
2019-05-17T20:26:12.647Z,81.00
2019-05-17T20:28:39.900Z,80.70
2019-05-17T20:31:07.417Z,80.70
2019-05-17T20:33:35.039Z,81.10
2019-05-17T20:36:02.593Z,81.20
2019-05-17T20:38:29.669Z,80.90
2019-05-17T20:40:57.176Z,80.80
2019-05-17T20:43:24.297Z,81.20
2019-05-17T20:45:52.041Z,81.30
2019-05-17T20:48:20.699Z,81.50
2019-05-17T20:50:49.571Z,81.80
2019-05-17T20:53:19.239Z,81.70
2019-05-17T20:55:46.009Z,82.30
2019-05-17T20:58:13.445Z,81.90
2019-05-17T21:00:41.820Z,82.00
2019-05-17T21:03:13.728Z,82.50
2019-05-17T21:05:40.780Z,82.50
2019-05-17T21:08:07.778Z,82.60
2019-05-17T21:10:35.396Z,82.80
2019-05-17T21:13:03.799Z,82.40
2019-05-17T21:15:31.340Z,82.00
2019-05-17T21:17:59.619Z,81.50
2019-05-17T21:20:26.742Z,80.80
2019-05-17T21:22:54.648Z,80.90
2019-05-17T21:25:22.939Z,80.90
2019-05-17T21:27:50.380Z,80.90
2019-05-17T21:30:18.294Z,80.80
2019-05-17T21:32:46.560Z,81.00
2019-05-17T21:35:13.992Z,81.10
2019-05-17T21:37:40.847Z,81.10
2019-05-17T21:40:08.168Z,81.40
2019-05-17T21:42:36.293Z,81.50
2019-05-17T21:45:04.664Z,81.70
2019-05-17T21:47:32.393Z,81.90
2019-05-17T21:49:59.904Z,81.90
2019-05-17T21:52:27.432Z,81.90
2019-05-17T21:54:54.853Z,81.80
2019-05-17T21:57:22.547Z,82.00
2019-05-17T21:59:49.911Z,82.30
2019-05-17T22:02:17.993Z,82.30
2019-05-17T22:04:45.591Z,82.40
2019-05-17T22:07:13.259Z,82.50
2019-05-17T22:09:40.992Z,82.70
2019-05-17T22:12:10.852Z,83.40
2019-05-17T22:14:38.267Z,82.60
2019-05-17T22:17:05.519Z,82.90
2019-05-17T22:19:33.114Z,83.30
2019-05-17T22:22:00.657Z,83.60
2019-05-17T22:24:28.168Z,83.70
2019-05-17T22:26:55.125Z,83.60
2019-05-17T22:29:22.497Z,83.90
2019-05-17T22:31:49.731Z,83.80
2019-05-17T22:34:17.163Z,83.80
2019-05-17T22:36:44.547Z,83.90
2019-05-17T22:39:11.567Z,83.80
2019-05-17T22:41:39.139Z,84.00
2019-05-17T22:44:06.507Z,84.10
2019-05-17T22:46:36.456Z,84.50
2019-05-17T22:49:03.898Z,84.80
2019-05-17T22:51:31.092Z,84.50
2019-05-17T22:53:59.167Z,84.40
2019-05-17T22:56:27.673Z,84.50
2019-05-17T22:58:54.687Z,84.60
2019-05-17T23:01:22.415Z,84.40
2019-05-17T23:03:49.903Z,84.40
2019-05-17T23:06:17.800Z,84.40
2019-05-17T23:08:45.105Z,84.50
2019-05-17T23:11:12.587Z,84.60
2019-05-17T23:13:40.123Z,84.40
2019-05-17T23:16:10.199Z,84.50
2019-05-17T23:18:37.747Z,84.60
2019-05-17T23:21:04.840Z,84.60
2019-05-17T23:23:32.349Z,84.60
2019-05-17T23:25:59.956Z,84.60
2019-05-17T23:28:27.798Z,84.90
2019-05-17T23:30:55.011Z,84.90
2019-05-17T23:33:22.604Z,85.10
2019-05-17T23:35:50.018Z,85.20
2019-05-17T23:38:16.967Z,85.30
2019-05-17T23:40:44.580Z,85.00
2019-05-17T23:43:11.724Z,84.80
2019-05-17T23:45:39.411Z,84.70
2019-05-17T23:48:06.388Z,84.90
2019-05-17T23:50:34.876Z,85.00
2019-05-17T23:53:03.583Z,85.20
2019-05-17T23:55:30.596Z,85.20
2019-05-17T23:57:59.202Z,85.60
